Terminal Aerodrome Forecast
Issued by NWS

Home | Current Version | Previous Version | Text Only | Print | Product List | Glossary On
Versions: 1 2 3 4 5 6 7 8 9 10 11 12 13 14 15 16 17 18 19 20 21 22 23 24 25 26 27 28 29 30 31 32 33 34
000
FTUS43 KMKX 010740 AAA
TAFUES
TAF AMD
KUES 010740Z 0108/0206 19005KT P6SM SCT024
     FM010900 00000KT P6SM BKN024
     FM011100 22003KT P6SM BKN012
     FM011800 24007KT P6SM OVC020
     FM020200 27010KT P6SM SCT025 BKN060
     FM020400 28010KT P6SM SCT250=

USA.gov is the U.S. government's official web portal to all federal, state and local government web resources and services.